スキポール空港(アムステルダム)の過去48時間の天気

スキポール空港(アムステルダム) (Amsterdam Airport Schiphol)

現在時刻: 9/23 01:50 CEST (9/22 23:50 UTC) 以下の時間は現地時間です。

過去48時間のMETAR気象情報
時間 風向 風速(m/s) 視程 気温(℃) 湿度(%) 気圧(hPa) 天気現象
23 01:25 4 9000m 13 88 1022
23 00:55 5 10km以上 12 88 1022
23 00:25 南南西 3 10km以上 12 88 1022
22 23:55 南南西 4 10km以上 13 82 1023
22 23:25 南西 4 10km以上 13 82 1023
22 22:55 南南西 4 10km以上 13 82 1023
22 22:25 4 10km以上 13 82 1023
22 21:55 南南西 4 10km以上 13 82 1024
22 21:25 南南西 4 10km以上 14 77 1024
22 20:55 南西 5 10km以上 15 77 1024
22 20:25 西南西 5 10km以上 16 72 1024
22 19:55 西南西 5 10km以上 16 72 1025
22 19:25 西南西 5 10km以上 17 68 1025
22 18:55 西南西 6 10km以上 18 64 1025
22 18:25 西 6 10km以上 18 64 1025
22 17:55 西 6 10km以上 19 64 1025
22 17:25 西 6 10km以上 19 64 1025
22 16:55 西 6 10km以上 20 64 1025
22 16:25 西 6 10km以上 20 64 1026
22 15:55 西 6 10km以上 20 64 1026
22 15:25 西 5 10km以上 20 64 1027
22 14:55 西 5 10km以上 21 60 1027
22 14:25 南西 5 10km以上 21 60 1027
22 13:55 西南西 5 10km以上 21 60 1027
22 13:25 西 5 10km以上 20 64 1028
22 12:55 西 6 10km以上 20 68 1028
22 12:25 南西 5 10km以上 19 78 1028
22 11:55 南西 4 10km以上 19 73 1028
22 11:25 南西 5 10km以上 18 77 1028
22 10:55 南西 4 10km以上 18 77 1028
22 10:25 南南西 4 10km以上 16 82 1028
22 09:55 南南西 4 10km以上 15 88 1029
22 09:25 南南西 5 10km以上 14 88 1029
22 08:55 南南西 4 10km以上 13 94 1028
22 08:25 南西 4 9000m 12 94 1028
22 07:55 南南西 4 7000m 11 94 1028
22 07:25 南南西 4 7000m 11 94 1028 地霧
22 06:55 南西 4 7000m 12 94 1028 地霧
22 06:25 南南西 3 7000m 10 100 1028 地霧
22 05:55 南南西 2 7000m 9 100 1028 地霧
22 05:25 南南西 2 7000m 10 100 1028 地霧
22 04:55 南南西 2 7000m 10 100 1029 地霧
22 04:25 不定 1 7000m 11 100 1029 地霧
22 03:55 不定 1 7000m 11 100 1029 地霧
22 03:25 1 7000m 11 100 1029 地霧
22 02:55 南西 1 8000m 11 100 1029 地霧
22 02:25 1 9000m 11 100 1029 地霧
22 01:55 2 9000m 11 100 1029 地霧
22 01:25 2 10km以上 12 94 1030 地霧
22 00:55 南南西 2 10km以上 12 94 1030
22 00:25 南南西 2 10km以上 12 94 1030
21 23:55 南南西 2 10km以上 12 88 1030
21 23:25 2 10km以上 12 94 1030
21 22:55 西南西 2 10km以上 13 88 1030
21 22:25 西南西 3 10km以上 14 88 1030
21 21:55 西南西 3 10km以上 14 88 1030
21 21:25 西南西 3 10km以上 15 82 1030
21 20:55 西南西 3 10km以上 15 82 1030
21 20:25 西 3 10km以上 16 77 1030
21 19:55 西 3 10km以上 15 82 1030
21 19:25 西 4 10km以上 16 77 1030
21 18:55 西 4 10km以上 16 77 1029
21 18:25 西 5 10km以上 17 72 1029
21 17:55 西 5 10km以上 17 72 1029
21 17:25 西 5 10km以上 18 68 1030
21 16:55 西北西 5 10km以上 18 64 1030
21 16:25 西 5 10km以上 18 68 1029
21 15:55 西 5 10km以上 18 64 1030
21 15:25 西 4 10km以上 19 60 1030
21 14:55 西 4 10km以上 19 60 1030
21 14:25 西 4 10km以上 19 56 1030
21 13:55 西南西 4 10km以上 19 56 1030
21 13:25 3 10km以上 18 60 1030
21 12:55 南西 3 10km以上 18 56 1030
21 12:25 南西 3 10km以上 17 59 1030
21 11:55 南南西 3 10km以上 17 52 1030
21 11:25 3 10km以上 16 55 1030
21 10:55 3 10km以上 15 59 1030
21 10:25 3 10km以上 14 63 1030
21 09:55 南南西 2 10km以上 13 72 1030
21 09:25 不定 1 10km以上 12 82 1029
21 08:55 北西 1 10km以上 10 94 1029
21 08:25 不定 1 10km以上 8 87 1029
21 07:55 南南東 2 10km以上 7 93 1028
21 07:25 西 2 10km以上 8 93 1028 地霧
21 06:55 北西 1 10km以上 7 93 1028 地霧
21 06:25 北西 1 10km以上 7 100 1028 地霧
21 05:55 静穏 0 10km以上 8 93 1028 地霧
21 05:25 北西 1 10km以上 7 100 1028 地霧
21 04:55 北西 1 10km以上 7 100 1028
21 04:25 静穏 0 10km以上 8 100 1027
21 03:55 北西 1 10km以上 8 93 1027
21 03:25 北西 1 10km以上 7 100 1027
21 02:55 不定 2 10km以上 8 93 1028
21 02:25 南東 1 10km以上 8 100 1028
21 01:55 静穏 0 10km以上 8 93 1027
EHAM 222325Z 19008KT 9000 NSC 13/11 Q1022 NOSIG
EHAM 222255Z 19009KT CAVOK 12/10 Q1022 NOSIG
EHAM 222225Z 20006KT CAVOK 12/10 Q1022 NOSIG
EHAM 222155Z 20008KT CAVOK 13/10 Q1023 NOSIG
EHAM 222125Z 22008KT CAVOK 13/10 Q1023 NOSIG
EHAM 222055Z 20008KT CAVOK 13/10 Q1023 NOSIG
EHAM 222025Z 19007KT CAVOK 13/10 Q1023 NOSIG
EHAM 221955Z 20007KT CAVOK 13/10 Q1024 NOSIG
EHAM 221925Z 21008KT CAVOK 14/10 Q1024 NOSIG
EHAM 221855Z 22009KT CAVOK 15/11 Q1024 NOSIG
EHAM 221825Z 24009KT CAVOK 16/11 Q1024 NOSIG
EHAM 221755Z 25009KT CAVOK 16/11 Q1025 NOSIG
EHAM 221725Z 25010KT CAVOK 17/11 Q1025 NOSIG
EHAM 221655Z 25011KT CAVOK 18/11 Q1025 NOSIG
EHAM 221625Z 26012KT 9999 FEW026 18/11 Q1025 NOSIG
EHAM 221555Z 27012KT 9999 FEW029 19/12 Q1025 NOSIG
EHAM 221525Z 27012KT 240V300 9999 FEW030 19/12 Q1025 NOSIG
EHAM 221455Z 26011KT 9999 FEW030 20/13 Q1025 NOSIG
EHAM 221425Z 27011KT 9999 FEW031 20/13 Q1026 NOSIG
EHAM 221355Z 26012KT 230V300 9999 FEW030 20/13 Q1026 NOSIG
EHAM 221325Z 26010KT 230V300 9999 FEW030 20/13 Q1027 NOSIG
EHAM 221255Z 26009KT 220V310 9999 FEW032 21/13 Q1027 NOSIG
EHAM 221225Z 23009KT 200V280 9999 FEW032 21/13 Q1027 NOSIG
EHAM 221155Z 24010KT 190V280 9999 FEW030 21/13 Q1027 NOSIG
EHAM 221125Z 26010KT 9999 FEW025 20/13 Q1028 NOSIG
EHAM 221055Z 26011KT 9999 FEW023 20/14 Q1028 NOSIG
EHAM 221025Z 23009KT 190V270 9999 SCT020 19/15 Q1028 NOSIG
EHAM 220955Z 23008KT 180V290 9999 FEW018 19/14 Q1028 NOSIG
EHAM 220925Z 23009KT 190V260 9999 FEW018 18/14 Q1028 NOSIG
EHAM 220855Z 22008KT 9999 FEW018 18/14 Q1028 NOSIG
EHAM 220825Z 20007KT 9999 FEW018 16/13 Q1028 NOSIG
EHAM 220755Z 21008KT 9999 FEW018 15/13 Q1029 NOSIG
EHAM 220725Z 21009KT 9999 FEW018 14/12 Q1029 NOSIG
EHAM 220655Z 21008KT 9999 FEW018 13/12 Q1028 NOSIG
EHAM 220625Z 22008KT 9000 FEW018 12/11 Q1028 NOSIG
EHAM 220555Z 21008KT 7000 FEW016 11/10 Q1028 BECMG 9999
EHAM 220525Z 21007KT 7000 MIFG FEW016 11/10 Q1028 NOSIG
EHAM 220455Z 22007KT 7000 MIFG NSC 12/11 Q1028 NOSIG
EHAM 220425Z 21006KT 7000 MIFG FEW017 10/10 Q1028 NOSIG
EHAM 220355Z 21003KT 170V230 7000 MIFG FEW017 09/09 Q1028 NOSIG
EHAM 220325Z 20004KT 7000 MIFG FEW017 10/10 Q1028 NOSIG
EHAM 220255Z 20003KT 160V240 7000 MIFG FEW017 10/10 Q1029 NOSIG
EHAM 220225Z VRB02KT 7000 MIFG FEW019 11/11 Q1029 NOSIG
EHAM 220155Z VRB01KT 7000 MIFG FEW019 11/11 Q1029 NOSIG
EHAM 220125Z 18001KT 7000 MIFG FEW019 11/11 Q1029 NOSIG
EHAM 220055Z 22002KT 8000 MIFG NSC 11/11 Q1029 BECMG 7000
EHAM 220025Z 19002KT 9000 MIFG FEW020 11/11 Q1029 BECMG 7000
EHAM 212355Z 17003KT 9000 MIFG FEW020 11/11 Q1029 NOSIG
EHAM 212325Z 19003KT 9999 MIFG FEW020 12/11 Q1030 NOSIG
EHAM 212255Z 20004KT 9999 FEW020 12/11 Q1030 NOSIG
EHAM 212225Z 20004KT 9999 FEW020 12/11 Q1030 NOSIG
EHAM 212155Z 21004KT 9999 FEW020 12/10 Q1030 NOSIG
EHAM 212125Z 18003KT 9999 FEW020 12/11 Q1030 NOSIG
EHAM 212055Z 25004KT 9999 FEW020 13/11 Q1030 NOSIG
EHAM 212025Z 25005KT 9999 FEW020 14/12 Q1030 NOSIG
EHAM 211955Z 25005KT 9999 FEW020 14/12 Q1030 NOSIG
EHAM 211925Z 24006KT 9999 FEW020 15/12 Q1030 NOSIG
EHAM 211855Z 25006KT 9999 FEW020 15/12 Q1030 NOSIG
EHAM 211825Z 26006KT 9999 FEW020 16/12 Q1030 NOSIG
EHAM 211755Z 27006KT 9999 FEW019 15/12 Q1030 NOSIG
EHAM 211725Z 27008KT 9999 FEW021 16/12 Q1030 NOSIG
EHAM 211655Z 27008KT 9999 FEW022 16/12 Q1029 NOSIG
EHAM 211625Z 28010KT 9999 FEW025 17/12 Q1029 NOSIG
EHAM 211555Z 28009KT 230V310 9999 FEW025 17/12 Q1029 NOSIG
EHAM 211525Z 28009KT 9999 FEW027 18/12 Q1030 NOSIG
EHAM 211455Z 29009KT 240V320 9999 FEW027 18/11 Q1030 NOSIG
EHAM 211425Z 28009KT 9999 FEW027 18/12 Q1029 NOSIG
EHAM 211355Z 28010KT 250V310 9999 FEW029 18/11 Q1030 NOSIG
EHAM 211325Z 27008KT 230V320 9999 FEW031 19/11 Q1030 NOSIG
EHAM 211255Z 26008KT 200V300 9999 FEW035 19/11 Q1030 NOSIG
EHAM 211225Z 27007KT 230V310 9999 FEW035 19/10 Q1030 NOSIG
EHAM 211155Z 25007KT 210V310 9999 FEW036 19/10 Q1030 NOSIG
EHAM 211125Z VRB05KT 9999 FEW036 18/10 Q1030 NOSIG
EHAM 211055Z 22005KT 140V310 9999 FEW035 18/09 Q1030 NOSIG
EHAM 211025Z 22005KT 180V260 9999 FEW032 17/09 Q1030 NOSIG
EHAM 210955Z 20005KT 170V250 CAVOK 17/07 Q1030 NOSIG
EHAM 210925Z 19006KT CAVOK 16/07 Q1030 NOSIG
EHAM 210855Z 18006KT CAVOK 15/07 Q1030 NOSIG
EHAM 210825Z 19005KT CAVOK 14/07 Q1030 NOSIG
EHAM 210755Z 20004KT CAVOK 13/08 Q1030 NOSIG
EHAM 210725Z VRB01KT CAVOK 12/09 Q1029 NOSIG
EHAM 210655Z 31002KT CAVOK 10/09 Q1029 NOSIG
EHAM 210625Z VRB02KT CAVOK 08/06 Q1029 NOSIG
EHAM 210555Z 16003KT 100V230 CAVOK 07/06 Q1028 NOSIG
EHAM 210525Z 27003KT 9999 MIFG NSC 08/07 Q1028 NOSIG
EHAM 210455Z 31001KT 9999 MIFG NSC 07/06 Q1028 NOSIG
EHAM 210425Z 32002KT 9999 MIFG NSC 07/07 Q1028 NOSIG
EHAM 210355Z 00000KT 9999 MIFG NSC 08/07 Q1028 NOSIG
EHAM 210325Z 31001KT 9999 MIFG NSC 07/07 Q1028 NOSIG
EHAM 210255Z 31001KT CAVOK 07/07 Q1028 NOSIG
EHAM 210225Z 00000KT CAVOK 08/08 Q1027 NOSIG
EHAM 210155Z 31001KT CAVOK 08/07 Q1027 NOSIG
EHAM 210125Z 31001KT CAVOK 07/07 Q1027 NOSIG
EHAM 210055Z VRB03KT CAVOK 08/07 Q1028 NOSIG
EHAM 210025Z 14001KT CAVOK 08/08 Q1028 NOSIG
EHAM 202355Z 00000KT CAVOK 08/07 Q1027 NOSIG